createdAt,value
2023-09-02T00:00:50.626Z,94076.19
2023-09-02T00:03:17.923Z,94078.75
2023-09-02T00:05:45.054Z,94075.50
2023-09-02T00:08:12.135Z,94081.09
2023-09-02T00:10:40.400Z,94079.03
2023-09-02T00:13:07.410Z,94081.41
2023-09-02T00:15:34.344Z,94083.53
2023-09-02T00:18:01.411Z,94089.34
2023-09-02T00:20:28.523Z,94078.91
2023-09-02T00:22:55.520Z,94076.69
2023-09-02T00:25:23.970Z,94071.09
2023-09-02T00:27:53.243Z,94076.34
2023-09-02T00:30:20.452Z,94068.75
2023-09-02T00:32:47.498Z,94069.75
2023-09-02T00:35:14.542Z,94076.13
2023-09-02T00:37:41.677Z,94076.91
2023-09-02T00:40:15.009Z,94076.53
2023-09-02T00:42:42.605Z,94080.91
2023-09-02T00:45:11.328Z,94078.28
2023-09-02T00:47:39.628Z,94085.63
2023-09-02T00:50:07.748Z,94089.19
2023-09-02T00:52:34.641Z,94087.16
2023-09-02T00:55:02.323Z,94084.91
2023-09-02T00:57:29.532Z,94090.47
2023-09-02T00:59:56.659Z,94091.97
2023-09-02T01:02:25.464Z,94083.25
2023-09-02T01:04:52.592Z,94079.88
2023-09-02T01:07:19.760Z,94077.38
2023-09-02T01:09:46.878Z,94074.75
2023-09-02T01:12:14.421Z,94069.81
2023-09-02T01:14:41.450Z,94074.69
2023-09-02T01:17:08.500Z,94079.88
2023-09-02T01:19:37.704Z,94081.03
2023-09-02T01:22:16.782Z,94079.25
2023-09-02T01:25:08.833Z,94080.97
2023-09-02T01:27:39.589Z,94089.50
2023-09-02T01:30:09.719Z,94085.56
2023-09-02T01:32:41.830Z,94083.75
2023-09-02T01:35:09.385Z,94090.97
2023-09-02T01:37:41.662Z,94086.88
2023-09-02T01:40:09.715Z,94088.56
2023-09-02T01:42:38.807Z,94086.41
2023-09-02T01:45:06.843Z,94089.19
2023-09-02T01:47:34.040Z,94093.81
2023-09-02T01:50:02.572Z,94087.41
2023-09-02T01:52:30.756Z,94088.94
2023-09-02T01:54:57.982Z,94086.22
2023-09-02T01:57:26.187Z,94087.41
2023-09-02T01:59:54.849Z,94085.19
2023-09-02T02:02:22.233Z,94086.41
2023-09-02T02:04:54.414Z,94091.84
2023-09-02T02:07:22.831Z,94085.69
2023-09-02T02:09:53.636Z,94098.66
2023-09-02T02:12:21.478Z,94100.28
2023-09-02T02:14:48.799Z,94104.91
2023-09-02T02:17:17.304Z,94098.28
2023-09-02T02:19:45.305Z,94105.38
2023-09-02T02:22:12.108Z,94101.16
2023-09-02T02:24:39.194Z,94105.81
2023-09-02T02:27:06.484Z,94097.44
2023-09-02T02:29:33.537Z,94099.22
2023-09-02T02:32:00.811Z,94104.94
2023-09-02T02:34:29.260Z,94100.09
2023-09-02T02:36:56.324Z,94095.72
2023-09-02T02:39:23.421Z,94091.16
2023-09-02T02:41:50.549Z,94094.84
2023-09-02T02:44:17.558Z,94087.09
2023-09-02T02:46:44.597Z,94087.75
2023-09-02T02:49:12.839Z,94095.16
2023-09-02T02:51:41.250Z,94095.03
2023-09-02T02:54:08.277Z,94091.00
2023-09-02T02:56:35.289Z,94087.50
2023-09-02T02:59:02.337Z,94096.25
2023-09-02T03:01:31.444Z,94092.41
2023-09-02T03:04:00.748Z,94104.31
2023-09-02T03:06:28.314Z,94106.56
2023-09-02T03:08:56.726Z,94106.09
2023-09-02T03:11:23.785Z,94110.84
2023-09-02T03:13:51.032Z,94108.25
2023-09-02T03:16:22.602Z,94106.47
2023-09-02T03:18:50.017Z,94109.22
2023-09-02T03:21:18.455Z,94114.84
2023-09-02T03:23:45.415Z,94113.06
2023-09-02T03:26:16.606Z,94107.81
2023-09-02T03:28:46.044Z,94106.63
2023-09-02T03:31:13.379Z,94109.56
2023-09-02T03:33:43.010Z,94113.13
2023-09-02T03:36:17.023Z,94110.56
2023-09-02T03:38:45.316Z,94102.06
2023-09-02T03:41:18.364Z,94104.03
2023-09-02T03:43:46.369Z,94111.34
2023-09-02T03:46:14.337Z,94116.00
2023-09-02T03:48:42.026Z,94112.44
2023-09-02T03:51:13.723Z,94108.34
2023-09-02T03:53:45.115Z,94113.16
2023-09-02T03:56:15.342Z,94111.47
2023-09-02T03:58:42.610Z,94114.06
2023-09-02T04:01:10.353Z,94115.91
2023-09-02T04:03:37.685Z,94110.94
2023-09-02T04:06:08.176Z,94116.72
2023-09-02T04:08:35.919Z,94119.94
2023-09-02T04:11:04.051Z,94118.50
2023-09-02T04:13:32.586Z,94115.22
2023-09-02T04:16:09.597Z,94120.03
2023-09-02T04:18:36.854Z,94119.50
2023-09-02T04:21:04.761Z,94119.31
2023-09-02T04:23:33.721Z,94114.13
2023-09-02T04:26:09.528Z,94115.38
2023-09-02T04:28:38.914Z,94116.66
2023-09-02T04:31:06.205Z,94120.50
2023-09-02T04:33:34.951Z,94127.56
2023-09-02T04:36:03.999Z,94131.44
2023-09-02T04:38:34.352Z,94133.19
2023-09-02T04:41:03.083Z,94126.81
2023-09-02T04:43:30.174Z,94130.84
2023-09-02T04:46:01.054Z,94135.75
2023-09-02T04:48:28.109Z,94133.59
2023-09-02T04:50:55.239Z,94128.84
2023-09-02T04:53:24.725Z,94129.03
2023-09-02T04:55:53.216Z,94135.16
2023-09-02T04:58:24.227Z,94138.44
2023-09-02T05:00:53.785Z,94139.91
2023-09-02T05:03:23.125Z,94140.00
2023-09-02T05:05:50.966Z,94137.25
2023-09-02T05:08:18.821Z,94141.34
2023-09-02T05:10:46.294Z,94141.69
2023-09-02T05:13:13.423Z,94137.97
2023-09-02T05:15:40.577Z,94140.06
2023-09-02T05:18:08.852Z,94139.34
2023-09-02T05:20:40.859Z,94146.25
2023-09-02T05:23:08.426Z,94147.69
2023-09-02T05:25:35.526Z,94143.59
2023-09-02T05:28:03.215Z,94146.25
2023-09-02T05:30:30.666Z,94138.31
2023-09-02T05:32:57.836Z,94144.59
2023-09-02T05:35:25.015Z,94150.66
2023-09-02T05:37:53.434Z,94143.72
2023-09-02T05:40:20.440Z,94137.94
2023-09-02T05:42:47.410Z,94135.56
2023-09-02T05:45:14.676Z,94136.41
2023-09-02T05:47:41.635Z,94144.44
2023-09-02T05:50:09.149Z,94147.47
2023-09-02T05:52:36.202Z,94151.09
2023-09-02T05:55:05.470Z,94153.16
2023-09-02T05:57:33.475Z,94151.38
2023-09-02T06:00:00.309Z,94155.78
2023-09-02T06:02:29.175Z,94151.38
2023-09-02T06:04:56.186Z,94152.38
2023-09-02T06:07:23.249Z,94162.59
2023-09-02T06:09:50.310Z,94167.59
2023-09-02T06:12:18.673Z,94163.38
2023-09-02T06:14:45.843Z,94173.81
2023-09-02T06:17:12.912Z,94166.59
2023-09-02T06:19:39.945Z,94161.97
2023-09-02T06:22:06.856Z,94170.56
2023-09-02T06:24:33.841Z,94168.53
2023-09-02T06:27:04.884Z,94166.91
2023-09-02T06:29:33.798Z,94173.69
2023-09-02T06:32:00.823Z,94168.41
2023-09-02T06:34:29.081Z,94168.13
2023-09-02T06:36:56.152Z,94169.19
2023-09-02T06:39:23.192Z,94168.16
2023-09-02T06:41:52.064Z,94167.66
2023-09-02T06:44:23.475Z,94161.97
2023-09-02T06:46:51.789Z,94167.91
2023-09-02T06:49:18.767Z,94164.00
2023-09-02T06:51:45.901Z,94172.25
2023-09-02T06:54:12.858Z,94165.75
2023-09-02T06:56:39.925Z,94167.19
2023-09-02T06:59:06.907Z,94165.28
2023-09-02T07:01:34.067Z,94172.16
2023-09-02T07:04:02.496Z,94172.56
2023-09-02T07:06:29.910Z,94165.41
2023-09-02T07:08:56.980Z,94166.47
2023-09-02T07:11:23.938Z,94174.59
2023-09-02T07:13:50.945Z,94165.31
2023-09-02T07:16:18.129Z,94169.59
2023-09-02T07:18:45.195Z,94167.34
2023-09-02T07:21:13.603Z,94169.13
2023-09-02T07:23:40.656Z,94167.38
2023-09-02T07:26:07.650Z,94169.19
2023-09-02T07:28:35.104Z,94173.75
2023-09-02T07:31:03.090Z,94166.31
2023-09-02T07:33:30.905Z,94169.22
2023-09-02T07:35:59.097Z,94165.59
2023-09-02T07:38:28.805Z,94169.72
2023-09-02T07:40:55.743Z,94167.84
2023-09-02T07:43:22.702Z,94172.72
2023-09-02T07:45:50.428Z,94174.28
2023-09-02T07:48:17.570Z,94172.91
2023-09-02T07:50:44.731Z,94169.34
2023-09-02T07:53:11.727Z,94171.72
2023-09-02T07:55:40.244Z,94173.16
2023-09-02T07:58:07.426Z,94173.28
2023-09-02T08:00:35.167Z,94170.31
2023-09-02T08:03:02.820Z,94171.00
2023-09-02T08:05:30.072Z,94170.25
2023-09-02T08:07:57.317Z,94173.53
2023-09-02T08:10:24.804Z,94177.50
2023-09-02T08:12:52.962Z,94171.41
2023-09-02T08:15:21.114Z,94174.53
2023-09-02T08:17:48.124Z,94185.38
2023-09-02T08:20:15.519Z,94177.94
2023-09-02T08:22:44.335Z,94177.63
2023-09-02T08:25:12.137Z,94180.59
2023-09-02T08:27:39.189Z,94177.50
2023-09-02T08:30:08.664Z,94169.47
2023-09-02T08:32:35.695Z,94170.31
2023-09-02T08:35:03.470Z,94175.72
2023-09-02T08:37:32.493Z,94170.41
2023-09-02T08:39:59.571Z,94162.09
2023-09-02T08:42:27.795Z,94160.13
2023-09-02T08:44:55.199Z,94172.16
2023-09-02T08:47:23.432Z,94167.75
2023-09-02T08:49:50.920Z,94163.41
2023-09-02T08:52:17.678Z,94167.19
2023-09-02T08:54:44.815Z,94165.38
2023-09-02T08:57:12.484Z,94164.34
2023-09-02T08:59:40.100Z,94162.56
2023-09-02T09:02:08.511Z,94160.22
2023-09-02T09:04:37.515Z,94158.38
2023-09-02T09:07:06.049Z,94158.34
2023-09-02T09:09:33.910Z,94159.06
2023-09-02T09:12:02.821Z,94159.28
2023-09-02T09:14:32.465Z,94164.63
2023-09-02T09:17:00.423Z,94154.91
2023-09-02T09:19:28.946Z,94156.50
2023-09-02T09:21:58.421Z,94149.13
2023-09-02T09:24:25.458Z,94154.91
2023-09-02T09:26:52.946Z,94150.66
2023-09-02T09:29:22.534Z,94149.09
2023-09-02T09:31:52.605Z,94153.84
2023-09-02T09:34:19.681Z,94145.09
2023-09-02T09:36:59.246Z,94143.81
2023-09-02T09:39:39.028Z,94147.22
2023-09-02T09:42:06.691Z,94142.72
2023-09-02T09:44:33.614Z,94137.19
2023-09-02T09:47:02.078Z,94132.91
2023-09-02T09:49:30.252Z,94142.44
2023-09-02T09:52:11.222Z,94141.16
2023-09-02T09:54:39.305Z,94134.75
2023-09-02T09:57:06.789Z,94135.22
2023-09-02T09:59:35.816Z,94130.84
2023-09-02T10:02:03.195Z,94131.78
2023-09-02T10:04:30.226Z,94131.19
2023-09-02T10:07:01.516Z,94128.63
2023-09-02T10:09:41.700Z,94123.09
2023-09-02T10:12:12.595Z,94128.88
2023-09-02T10:14:40.208Z,94133.25
2023-09-02T10:17:07.559Z,94125.78
2023-09-02T10:19:35.465Z,94126.25
2023-09-02T10:22:03.027Z,94124.25
2023-09-02T10:24:34.019Z,94115.25
2023-09-02T10:27:05.375Z,94111.91
2023-09-02T10:29:34.402Z,94108.28
2023-09-02T10:32:06.435Z,94111.66
2023-09-02T10:34:37.004Z,94109.28
2023-09-02T10:37:06.434Z,94107.03
2023-09-02T10:39:39.692Z,94098.94
2023-09-02T10:42:08.226Z,94099.72
2023-09-02T10:44:35.444Z,94107.81
2023-09-02T10:47:02.738Z,94099.06
2023-09-02T10:49:30.047Z,94096.50
2023-09-02T10:51:57.309Z,94101.16
2023-09-02T10:54:24.287Z,94102.69
2023-09-02T10:56:51.154Z,94112.38
2023-09-02T10:59:32.988Z,94111.78
2023-09-02T11:02:00.037Z,94106.28
2023-09-02T11:04:47.025Z,94102.94
2023-09-02T11:07:26.618Z,94103.13
2023-09-02T11:09:55.205Z,94102.38
2023-09-02T11:12:22.803Z,94102.03
2023-09-02T11:15:19.835Z,94097.13
2023-09-02T11:17:47.195Z,94091.94
2023-09-02T11:20:15.552Z,94092.59
2023-09-02T11:22:54.858Z,94086.88
2023-09-02T11:25:39.847Z,94086.41
2023-09-02T11:28:08.274Z,94086.22
2023-09-02T11:30:38.476Z,94074.66
2023-09-02T11:33:06.168Z,94081.47
2023-09-02T11:35:34.724Z,94077.81
2023-09-02T11:38:02.831Z,94072.94
2023-09-02T11:40:29.975Z,94073.69
2023-09-02T11:43:00.644Z,94059.38
2023-09-02T11:45:29.683Z,94061.75
2023-09-02T11:47:58.445Z,94062.19
2023-09-02T11:50:26.151Z,94058.44
2023-09-02T11:52:54.464Z,94056.69
2023-09-02T11:55:21.995Z,94056.69
2023-09-02T11:57:49.261Z,94061.81
2023-09-02T12:00:17.556Z,94059.75
2023-09-02T12:02:45.720Z,94057.16
2023-09-02T12:05:14.445Z,94052.59
2023-09-02T12:07:42.572Z,94055.69
2023-09-02T12:10:11.333Z,94047.88
2023-09-02T12:12:41.818Z,94046.66
2023-09-02T12:15:12.189Z,94035.09
2023-09-02T12:17:40.008Z,94039.19
2023-09-02T12:20:09.158Z,94033.41
2023-09-02T12:22:38.536Z,94036.75
2023-09-02T12:25:13.320Z,94033.75
2023-09-02T12:27:42.717Z,94032.75
2023-09-02T12:30:12.228Z,94033.59
2023-09-02T12:32:39.460Z,94035.81
2023-09-02T12:35:10.009Z,94041.66
2023-09-02T12:37:38.553Z,94039.44
2023-09-02T12:40:12.996Z,94039.16
2023-09-02T12:42:41.097Z,94030.69
2023-09-02T12:45:10.048Z,94029.44
2023-09-02T12:47:39.570Z,94036.50
2023-09-02T12:50:07.428Z,94032.34
2023-09-02T12:52:36.252Z,94032.75
2023-09-02T12:55:06.534Z,94031.16
2023-09-02T12:57:34.365Z,94030.34
2023-09-02T13:00:02.897Z,94027.88
2023-09-02T13:02:30.891Z,94031.66
2023-09-02T13:05:01.285Z,94026.50
2023-09-02T13:07:29.476Z,94027.34
2023-09-02T13:09:56.546Z,94024.53
2023-09-02T13:12:27.020Z,94029.19
2023-09-02T13:14:53.973Z,94022.94
2023-09-02T13:17:20.949Z,94016.13
2023-09-02T13:19:47.777Z,94021.09
2023-09-02T13:22:15.327Z,94013.09
2023-09-02T13:24:45.061Z,94009.03
2023-09-02T13:27:12.075Z,94005.69
2023-09-02T13:29:40.530Z,94003.56
2023-09-02T13:32:09.229Z,94008.19
2023-09-02T13:34:37.498Z,94005.53
2023-09-02T13:37:08.858Z,94001.06
2023-09-02T13:39:36.687Z,94013.03
2023-09-02T13:42:04.004Z,94012.53
2023-09-02T13:44:31.216Z,94006.94
2023-09-02T13:47:06.192Z,94008.63
2023-09-02T13:49:34.685Z,94013.25
2023-09-02T13:52:02.412Z,94007.69
2023-09-02T13:54:29.545Z,94010.00
2023-09-02T13:56:56.621Z,94007.13
2023-09-02T13:59:25.093Z,94011.28
2023-09-02T14:01:52.582Z,94004.31
2023-09-02T14:04:21.386Z,94013.22
2023-09-02T14:06:48.476Z,94008.22
2023-09-02T14:09:20.321Z,94002.16
2023-09-02T14:11:47.625Z,94001.69
2023-09-02T14:14:16.317Z,94008.56
2023-09-02T14:16:43.281Z,94007.00
2023-09-02T14:19:10.046Z,94011.13
2023-09-02T14:21:38.528Z,94003.38
2023-09-02T14:24:06.291Z,94007.94
2023-09-02T14:26:33.927Z,94000.25
2023-09-02T14:29:01.093Z,94007.16
2023-09-02T14:31:28.232Z,94002.13
2023-09-02T14:33:55.563Z,94000.53
2023-09-02T14:36:23.086Z,93999.91
2023-09-02T14:38:51.454Z,94004.22
2023-09-02T14:41:18.551Z,94003.00
2023-09-02T14:43:51.729Z,93995.31
2023-09-02T14:46:18.951Z,94005.22
2023-09-02T14:48:46.691Z,94001.38
2023-09-02T14:51:14.107Z,94000.19
2023-09-02T14:53:41.255Z,94005.91
2023-09-02T14:56:09.819Z,93996.97
2023-09-02T14:58:37.049Z,94002.16
2023-09-02T15:01:05.233Z,94006.28
2023-09-02T15:03:37.794Z,94001.31
2023-09-02T15:06:05.892Z,93999.28
2023-09-02T15:08:34.144Z,93997.59
2023-09-02T15:11:01.526Z,93996.66
2023-09-02T15:13:30.512Z,94001.69
2023-09-02T15:15:58.143Z,94001.56
2023-09-02T15:18:27.954Z,94003.38
2023-09-02T15:20:55.225Z,94013.25
2023-09-02T15:23:22.363Z,94013.09
2023-09-02T15:25:49.628Z,94018.22
2023-09-02T15:28:16.829Z,94016.84
2023-09-02T15:30:45.269Z,94024.44
2023-09-02T15:33:12.884Z,94024.53
2023-09-02T15:35:39.950Z,94026.31
2023-09-02T15:38:08.037Z,94032.72
2023-09-02T15:40:35.210Z,94030.81
2023-09-02T15:43:03.928Z,94030.13
2023-09-02T15:45:31.584Z,94034.81
2023-09-02T15:48:00.232Z,94037.41
2023-09-02T15:50:28.502Z,94033.19
2023-09-02T15:52:55.563Z,94037.09
2023-09-02T15:55:26.377Z,94039.13
2023-09-02T15:57:55.473Z,94047.47
2023-09-02T16:00:22.475Z,94041.47
2023-09-02T16:02:49.678Z,94040.44
2023-09-02T16:05:18.411Z,94043.06
2023-09-02T16:07:48.475Z,94045.25
2023-09-02T16:10:15.626Z,94051.66
2023-09-02T16:12:42.429Z,94050.16
2023-09-02T16:15:12.440Z,94053.44
2023-09-02T16:17:40.969Z,94055.69
2023-09-02T16:20:11.614Z,94062.19
2023-09-02T16:22:41.315Z,94065.75
2023-09-02T16:25:09.544Z,94071.66
2023-09-02T16:27:36.699Z,94067.53
2023-09-02T16:30:06.030Z,94066.06
2023-09-02T16:32:33.701Z,94069.84
2023-09-02T16:35:00.848Z,94073.59
2023-09-02T16:37:27.886Z,94074.38
2023-09-02T16:39:57.224Z,94072.03
2023-09-02T16:42:30.228Z,94079.19
2023-09-02T16:45:07.028Z,94082.03
2023-09-02T16:47:40.387Z,94084.13
2023-09-02T16:50:08.764Z,94082.78
2023-09-02T16:52:40.189Z,94088.34
2023-09-02T16:55:15.559Z,94096.25
2023-09-02T16:57:44.684Z,94098.50
2023-09-02T17:00:13.429Z,94097.63
2023-09-02T17:02:43.097Z,94098.63
2023-09-02T17:05:17.117Z,94102.56
2023-09-02T17:07:44.384Z,94105.31
2023-09-02T17:10:16.711Z,94106.00
2023-09-02T17:12:44.402Z,94103.00
2023-09-02T17:15:15.575Z,94103.22
2023-09-02T17:17:46.219Z,94099.41
2023-09-02T17:20:25.419Z,94111.91
2023-09-02T17:22:52.839Z,94102.72
2023-09-02T17:25:20.964Z,94109.28
2023-09-02T17:27:49.247Z,94111.94
2023-09-02T17:30:18.791Z,94112.91
2023-09-02T17:32:46.707Z,94120.66
2023-09-02T17:35:13.925Z,94124.13
2023-09-02T17:37:42.334Z,94123.53
2023-09-02T17:40:10.010Z,94129.13
2023-09-02T17:42:41.191Z,94130.94
2023-09-02T17:45:09.254Z,94134.78
2023-09-02T17:47:37.311Z,94133.13
2023-09-02T17:50:05.470Z,94139.63
2023-09-02T17:52:32.418Z,94144.81
2023-09-02T17:54:59.446Z,94142.50
2023-09-02T17:57:26.390Z,94130.44
2023-09-02T17:59:54.840Z,94145.72
2023-09-02T18:02:21.939Z,94140.97
2023-09-02T18:04:49.290Z,94140.63
2023-09-02T18:07:16.540Z,94144.97
2023-09-02T18:09:45.027Z,94142.81
2023-09-02T18:12:12.068Z,94148.72
2023-09-02T18:14:45.064Z,94154.75
2023-09-02T18:17:13.745Z,94149.19
2023-09-02T18:19:41.518Z,94146.09
2023-09-02T18:22:08.620Z,94144.16
2023-09-02T18:24:36.864Z,94159.63
2023-09-02T18:27:04.407Z,94159.66
2023-09-02T18:29:31.327Z,94167.91
2023-09-02T18:31:58.240Z,94161.50
2023-09-02T18:34:26.997Z,94161.44
2023-09-02T18:36:54.108Z,94155.84
2023-09-02T18:39:25.093Z,94157.53
2023-09-02T18:41:52.400Z,94151.56
2023-09-02T18:44:19.995Z,94158.72
2023-09-02T18:46:47.078Z,94159.38
2023-09-02T18:49:15.149Z,94162.34
2023-09-02T18:51:43.638Z,94165.41
2023-09-02T18:54:11.075Z,94167.66
2023-09-02T18:56:38.498Z,94177.16
2023-09-02T18:59:05.918Z,94177.38
2023-09-02T19:01:32.921Z,94183.47
2023-09-02T19:04:00.752Z,94184.13
2023-09-02T19:06:27.458Z,94184.78
2023-09-02T19:08:55.816Z,94184.63
2023-09-02T19:11:41.045Z,94176.19
2023-09-02T19:14:08.214Z,94176.03
2023-09-02T19:16:35.479Z,94177.50
2023-09-02T19:19:04.224Z,94182.53
2023-09-02T19:21:33.372Z,94180.47
2023-09-02T19:24:01.763Z,94180.06
2023-09-02T19:26:28.899Z,94182.72
2023-09-02T19:28:55.868Z,94184.53
2023-09-02T19:31:22.865Z,94188.41
2023-09-02T19:33:49.953Z,94188.63
2023-09-02T19:36:17.081Z,94193.03
2023-09-02T19:38:44.092Z,94181.06
2023-09-02T19:41:12.621Z,94193.53
2023-09-02T19:43:40.372Z,94187.28
2023-09-02T19:46:07.748Z,94190.41
2023-09-02T19:48:34.764Z,94190.41
2023-09-02T19:51:01.814Z,94190.13
2023-09-02T19:53:28.912Z,94192.38
2023-09-02T19:55:56.908Z,94193.13
2023-09-02T19:58:25.306Z,94191.97
2023-09-02T20:00:52.250Z,94197.47
2023-09-02T20:03:19.317Z,94194.06
2023-09-02T20:05:47.500Z,94196.25
2023-09-02T20:08:14.641Z,94195.69
2023-09-02T20:10:41.919Z,94186.69
2023-09-02T20:13:09.112Z,94196.78
2023-09-02T20:15:37.695Z,94197.94
2023-09-02T20:18:05.758Z,94191.28
2023-09-02T20:20:33.909Z,94194.25
2023-09-02T20:23:01.202Z,94184.81
2023-09-02T20:25:31.595Z,94189.56
2023-09-02T20:27:58.630Z,94194.03
2023-09-02T20:30:25.636Z,94189.44
2023-09-02T20:32:54.120Z,94188.28
2023-09-02T20:35:21.153Z,94190.72
2023-09-02T20:37:48.125Z,94196.81
2023-09-02T20:40:15.702Z,94193.63
2023-09-02T20:42:42.715Z,94193.69
2023-09-02T20:45:10.357Z,94198.53
2023-09-02T20:47:37.351Z,94197.34
2023-09-02T20:50:06.769Z,94198.56
2023-09-02T20:52:33.869Z,94203.81
2023-09-02T20:55:00.857Z,94199.03
2023-09-02T20:57:28.055Z,94200.03
2023-09-02T20:59:55.288Z,94197.03
2023-09-02T21:02:22.382Z,94192.03
2023-09-02T21:04:49.588Z,94192.63
2023-09-02T21:07:17.955Z,94203.69
2023-09-02T21:09:44.947Z,94204.09
2023-09-02T21:12:13.707Z,94205.72
2023-09-02T21:14:41.535Z,94204.09
2023-09-02T21:17:08.911Z,94204.50
2023-09-02T21:19:37.967Z,94205.31
2023-09-02T21:22:05.732Z,94200.69
2023-09-02T21:24:34.214Z,94209.72
2023-09-02T21:27:01.294Z,94204.91
2023-09-02T21:29:28.440Z,94207.69
2023-09-02T21:31:55.490Z,94203.50
2023-09-02T21:34:22.695Z,94199.31
2023-09-02T21:36:49.779Z,94197.28
2023-09-02T21:39:16.909Z,94188.88
2023-09-02T21:41:45.399Z,94191.25
2023-09-02T21:44:13.488Z,94189.47
2023-09-02T21:46:40.834Z,94198.47
2023-09-02T21:49:08.030Z,94194.66
2023-09-02T21:51:35.011Z,94197.44
2023-09-02T21:54:01.942Z,94198.44
2023-09-02T21:56:28.943Z,94197.63
2023-09-02T21:58:57.308Z,94195.56
2023-09-02T22:01:24.286Z,94199.56
2023-09-02T22:03:51.330Z,94206.34
2023-09-02T22:06:18.856Z,94207.94
2023-09-02T22:08:47.932Z,94209.09
2023-09-02T22:11:15.973Z,94209.09
2023-09-02T22:13:43.790Z,94216.66
2023-09-02T22:16:12.286Z,94217.47
2023-09-02T22:18:41.396Z,94214.44
2023-09-02T22:21:11.812Z,94221.63
2023-09-02T22:23:39.023Z,94211.78
2023-09-02T22:26:06.772Z,94217.56
2023-09-02T22:28:35.373Z,94221.69
2023-09-02T22:31:03.098Z,94218.63
2023-09-02T22:33:32.306Z,94217.06
2023-09-02T22:35:59.338Z,94208.28
2023-09-02T22:38:48.107Z,94206.13
2023-09-02T22:41:14.653Z,94208.00
2023-09-02T22:43:41.651Z,94204.59
2023-09-02T22:46:09.862Z,94202.19
2023-09-02T22:48:38.375Z,94201.56
2023-09-02T22:51:06.422Z,94197.59
2023-09-02T22:53:33.288Z,94214.00
2023-09-02T22:56:00.394Z,94207.63
2023-09-02T22:58:27.357Z,94203.81
2023-09-02T23:00:54.490Z,94198.81
2023-09-02T23:03:21.853Z,94202.78
2023-09-02T23:05:50.529Z,94208.78
2023-09-02T23:08:17.444Z,94200.34
2023-09-02T23:10:44.478Z,94195.91
2023-09-02T23:13:11.416Z,94201.34
2023-09-02T23:15:38.766Z,94203.94
2023-09-02T23:18:06.105Z,94204.47
2023-09-02T23:20:33.654Z,94204.06
2023-09-02T23:23:02.097Z,94202.66
2023-09-02T23:25:29.312Z,94202.03
2023-09-02T23:27:56.338Z,94201.63
2023-09-02T23:30:23.361Z,94201.44
2023-09-02T23:32:51.452Z,94204.72
2023-09-02T23:35:18.739Z,94213.28
2023-09-02T23:37:45.919Z,94207.44
2023-09-02T23:40:18.291Z,94207.63
2023-09-02T23:42:45.294Z,94207.16
2023-09-02T23:45:12.507Z,94206.03
2023-09-02T23:47:39.533Z,94200.19
2023-09-02T23:50:07.326Z,94205.78
2023-09-02T23:52:34.524Z,94208.16
2023-09-02T23:55:01.605Z,94202.91
2023-09-02T23:57:30.026Z,94202.81
2023-09-02T23:59:57.063Z,94207.94
